sensor_id;sensor_type;location;lat;lon;timestamp;temperature;humidity
73939;DHT22;62291;47.554;8.504;2023-02-15T00:01:46;0.50;99.90
73939;DHT22;62291;47.554;8.504;2023-02-15T00:04:19;0.50;99.90
73939;DHT22;62291;47.554;8.504;2023-02-15T00:06:45;0.50;99.90
73939;DHT22;62291;47.554;8.504;2023-02-15T00:09:11;0.50;99.90
73939;DHT22;62291;47.554;8.504;2023-02-15T00:11:38;0.50;99.90
73939;DHT22;62291;47.554;8.504;2023-02-15T00:14:20;0.50;99.90
73939;DHT22;62291;47.554;8.504;2023-02-15T00:16:48;0.60;99.90
73939;DHT22;62291;47.554;8.504;2023-02-15T00:19:16;0.70;99.90
73939;DHT22;62291;47.554;8.504;2023-02-15T00:21:42;0.50;99.90
73939;DHT22;62291;47.554;8.504;2023-02-15T00:24:10;0.40;99.90
73939;DHT22;62291;47.554;8.504;2023-02-15T00:26:38;0.50;99.90
73939;DHT22;62291;47.554;8.504;2023-02-15T00:29:05;0.60;99.90
73939;DHT22;62291;47.554;8.504;2023-02-15T00:31:32;0.60;99.90
73939;DHT22;62291;47.554;8.504;2023-02-15T00:34:16;0.60;99.90
73939;DHT22;62291;47.554;8.504;2023-02-15T00:36:43;0.70;99.90
73939;DHT22;62291;47.554;8.504;2023-02-15T00:39:09;0.60;99.90
73939;DHT22;62291;47.554;8.504;2023-02-15T00:41:35;0.50;99.90
73939;DHT22;62291;47.554;8.504;2023-02-15T00:44:00;0.40;99.90
73939;DHT22;62291;47.554;8.504;2023-02-15T00:46:26;0.40;99.90
73939;DHT22;62291;47.554;8.504;2023-02-15T00:48:52;0.30;99.90
73939;DHT22;62291;47.554;8.504;2023-02-15T00:51:18;0.30;99.90
73939;DHT22;62291;47.554;8.504;2023-02-15T00:53:44;0.20;99.90
73939;DHT22;62291;47.554;8.504;2023-02-15T00:56:10;0.30;99.90
73939;DHT22;62291;47.554;8.504;2023-02-15T00:58:36;0.30;99.90
73939;DHT22;62291;47.554;8.504;2023-02-15T01:01:07;0.20;99.90
73939;DHT22;62291;47.554;8.504;2023-02-15T01:03:34;0.10;99.90
73939;DHT22;62291;47.554;8.504;2023-02-15T01:06:00;0.20;99.90
73939;DHT22;62291;47.554;8.504;2023-02-15T01:08:25;0.20;99.90
73939;DHT22;62291;47.554;8.504;2023-02-15T01:10:51;0.20;99.90
73939;DHT22;62291;47.554;8.504;2023-02-15T01:13:17;0.10;99.90
73939;DHT22;62291;47.554;8.504;2023-02-15T01:15:43;0.20;99.90
73939;DHT22;62291;47.554;8.504;2023-02-15T01:18:10;0.10;99.90
73939;DHT22;62291;47.554;8.504;2023-02-15T01:20:38;0.10;99.90
73939;DHT22;62291;47.554;8.504;2023-02-15T01:23:05;0.20;99.90
73939;DHT22;62291;47.554;8.504;2023-02-15T01:25:33;0.30;99.90
73939;DHT22;62291;47.554;8.504;2023-02-15T01:27:59;0.40;99.90
73939;DHT22;62291;47.554;8.504;2023-02-15T01:30:25;0.30;99.90
73939;DHT22;62291;47.554;8.504;2023-02-15T01:32:51;0.20;99.90
73939;DHT22;62291;47.554;8.504;2023-02-15T01:35:17;0.20;99.90
73939;DHT22;62291;47.554;8.504;2023-02-15T01:37:42;0.20;99.90
73939;DHT22;62291;47.554;8.504;2023-02-15T01:40:13;0.20;99.90
73939;DHT22;62291;47.554;8.504;2023-02-15T01:42:39;0.30;99.90
73939;DHT22;62291;47.554;8.504;2023-02-15T01:45:27;0.40;99.90
73939;DHT22;62291;47.554;8.504;2023-02-15T01:48:01;0.20;99.90
73939;DHT22;62291;47.554;8.504;2023-02-15T01:50:41;0.10;99.90
73939;DHT22;62291;47.554;8.504;2023-02-15T01:53:24;0.20;99.90
73939;DHT22;62291;47.554;8.504;2023-02-15T01:58:20;0.10;99.90
73939;DHT22;62291;47.554;8.504;2023-02-15T02:00:46;0.10;99.90
73939;DHT22;62291;47.554;8.504;2023-02-15T02:03:12;0.10;99.90
73939;DHT22;62291;47.554;8.504;2023-02-15T02:05:39;0.20;99.90
73939;DHT22;62291;47.554;8.504;2023-02-15T02:08:06;0.10;99.90
73939;DHT22;62291;47.554;8.504;2023-02-15T02:10:35;0.10;99.90
73939;DHT22;62291;47.554;8.504;2023-02-15T02:13:06;0.10;99.90
73939;DHT22;62291;47.554;8.504;2023-02-15T02:34:10;0.00;99.90
73939;DHT22;62291;47.554;8.504;2023-02-15T02:36:49;0.00;99.90
73939;DHT22;62291;47.554;8.504;2023-02-15T02:42:18;0.10;99.90
73939;DHT22;62291;47.554;8.504;2023-02-15T02:45:02;0.20;99.90
73939;DHT22;62291;47.554;8.504;2023-02-15T02:47:38;0.30;99.90
73939;DHT22;62291;47.554;8.504;2023-02-15T02:50:11;0.30;99.90
73939;DHT22;62291;47.554;8.504;2023-02-15T02:55:17;0.20;99.90
73939;DHT22;62291;47.554;8.504;2023-02-15T02:58:10;0.20;99.90
73939;DHT22;62291;47.554;8.504;2023-02-15T03:00:53;0.30;99.90
73939;DHT22;62291;47.554;8.504;2023-02-15T03:03:34;0.20;99.90
73939;DHT22;62291;47.554;8.504;2023-02-15T03:06:09;0.10;99.90
73939;DHT22;62291;47.554;8.504;2023-02-15T03:08:39;0.00;99.90
73939;DHT22;62291;47.554;8.504;2023-02-15T03:11:06;0.10;99.90
73939;DHT22;62291;47.554;8.504;2023-02-15T03:13:33;0.10;99.90
73939;DHT22;62291;47.554;8.504;2023-02-15T03:16:00;0.10;99.90
73939;DHT22;62291;47.554;8.504;2023-02-15T03:18:48;0.00;99.90
73939;DHT22;62291;47.554;8.504;2023-02-15T03:21:32;0.10;99.90
73939;DHT22;62291;47.554;8.504;2023-02-15T03:24:06;0.30;99.90
73939;DHT22;62291;47.554;8.504;2023-02-15T03:26:34;0.20;99.90
73939;DHT22;62291;47.554;8.504;2023-02-15T03:29:02;0.30;99.90
73939;DHT22;62291;47.554;8.504;2023-02-15T03:31:33;0.40;99.90
73939;DHT22;62291;47.554;8.504;2023-02-15T03:34:07;0.40;99.90
73939;DHT22;62291;47.554;8.504;2023-02-15T03:45:08;0.30;99.90
73939;DHT22;62291;47.554;8.504;2023-02-15T03:47:41;0.30;99.90
73939;DHT22;62291;47.554;8.504;2023-02-15T03:50:15;0.30;99.90
73939;DHT22;62291;47.554;8.504;2023-02-15T03:53:03;0.00;99.90
73939;DHT22;62291;47.554;8.504;2023-02-15T03:55:30;0.00;99.90
73939;DHT22;62291;47.554;8.504;2023-02-15T03:57:56;-0.10;99.90
73939;DHT22;62291;47.554;8.504;2023-02-15T04:00:48;-0.10;99.90
73939;DHT22;62291;47.554;8.504;2023-02-15T04:03:42;0.00;99.90
73939;DHT22;62291;47.554;8.504;2023-02-15T04:06:09;0.00;99.90
73939;DHT22;62291;47.554;8.504;2023-02-15T04:08:34;0.10;99.90
73939;DHT22;62291;47.554;8.504;2023-02-15T04:11:19;0.10;99.90
73939;DHT22;62291;47.554;8.504;2023-02-15T04:13:44;0.00;99.90
73939;DHT22;62291;47.554;8.504;2023-02-15T04:16:10;0.00;99.90
73939;DHT22;62291;47.554;8.504;2023-02-15T04:18:41;0.00;99.90
73939;DHT22;62291;47.554;8.504;2023-02-15T04:21:28;-0.10;99.90
73939;DHT22;62291;47.554;8.504;2023-02-15T04:24:13;-0.10;99.90
73939;DHT22;62291;47.554;8.504;2023-02-15T04:26:58;-0.10;99.90
73939;DHT22;62291;47.554;8.504;2023-02-15T04:29:25;-0.10;99.90
73939;DHT22;62291;47.554;8.504;2023-02-15T04:31:52;-0.10;99.90
73939;DHT22;62291;47.554;8.504;2023-02-15T04:34:18;-0.20;99.90
73939;DHT22;62291;47.554;8.504;2023-02-15T04:36:43;-0.20;99.90
73939;DHT22;62291;47.554;8.504;2023-02-15T04:39:11;-0.30;99.90
73939;DHT22;62291;47.554;8.504;2023-02-15T04:41:37;-0.30;99.90
73939;DHT22;62291;47.554;8.504;2023-02-15T04:44:03;-0.40;99.90
73939;DHT22;62291;47.554;8.504;2023-02-15T04:46:29;-0.50;99.90
73939;DHT22;62291;47.554;8.504;2023-02-15T04:48:55;-0.50;99.90
73939;DHT22;62291;47.554;8.504;2023-02-15T04:51:21;-0.50;99.90
73939;DHT22;62291;47.554;8.504;2023-02-15T04:53:46;-0.50;99.90
73939;DHT22;62291;47.554;8.504;2023-02-15T04:56:12;-0.40;99.90
73939;DHT22;62291;47.554;8.504;2023-02-15T04:58:38;-0.40;99.90
73939;DHT22;62291;47.554;8.504;2023-02-15T05:01:09;-0.50;99.90
73939;DHT22;62291;47.554;8.504;2023-02-15T05:03:36;-0.50;99.90
73939;DHT22;62291;47.554;8.504;2023-02-15T05:06:02;-0.60;99.90
73939;DHT22;62291;47.554;8.504;2023-02-15T05:08:28;-0.60;99.90
73939;DHT22;62291;47.554;8.504;2023-02-15T05:10:54;-0.50;99.90
73939;DHT22;62291;47.554;8.504;2023-02-15T05:13:19;-0.50;99.90
73939;DHT22;62291;47.554;8.504;2023-02-15T05:15:49;-0.50;99.90
73939;DHT22;62291;47.554;8.504;2023-02-15T05:18:18;-0.40;99.90
73939;DHT22;62291;47.554;8.504;2023-02-15T05:20:44;-0.40;99.90
73939;DHT22;62291;47.554;8.504;2023-02-15T05:23:10;-0.40;99.90
73939;DHT22;62291;47.554;8.504;2023-02-15T05:25:36;-0.40;99.90
73939;DHT22;62291;47.554;8.504;2023-02-15T05:28:21;-0.50;99.90
73939;DHT22;62291;47.554;8.504;2023-02-15T05:30:49;-0.50;99.90
73939;DHT22;62291;47.554;8.504;2023-02-15T05:33:15;-0.50;99.90
73939;DHT22;62291;47.554;8.504;2023-02-15T05:35:41;-0.50;99.90
73939;DHT22;62291;47.554;8.504;2023-02-15T05:38:07;-0.50;99.90
73939;DHT22;62291;47.554;8.504;2023-02-15T05:40:33;-0.40;99.90
73939;DHT22;62291;47.554;8.504;2023-02-15T05:42:59;-0.40;99.90
73939;DHT22;62291;47.554;8.504;2023-02-15T05:45:24;-0.40;99.90
73939;DHT22;62291;47.554;8.504;2023-02-15T05:47:50;-0.40;99.90
73939;DHT22;62291;47.554;8.504;2023-02-15T05:50:16;-0.50;99.90
73939;DHT22;62291;47.554;8.504;2023-02-15T05:52:42;-0.60;99.90
73939;DHT22;62291;47.554;8.504;2023-02-15T05:55:08;-0.60;99.90
73939;DHT22;62291;47.554;8.504;2023-02-15T05:57:35;-0.60;99.90
73939;DHT22;62291;47.554;8.504;2023-02-15T06:00:02;-0.60;99.90
73939;DHT22;62291;47.554;8.504;2023-02-15T06:02:32;-0.40;99.90
73939;DHT22;62291;47.554;8.504;2023-02-15T06:04:58;-0.20;99.90
73939;DHT22;62291;47.554;8.504;2023-02-15T06:07:24;-0.30;99.90
73939;DHT22;62291;47.554;8.504;2023-02-15T06:09:50;-0.40;99.90
73939;DHT22;62291;47.554;8.504;2023-02-15T06:12:15;-0.50;99.90
73939;DHT22;62291;47.554;8.504;2023-02-15T06:14:41;-0.50;99.90
73939;DHT22;62291;47.554;8.504;2023-02-15T06:17:07;-0.50;99.90
73939;DHT22;62291;47.554;8.504;2023-02-15T06:19:32;-0.50;99.90
73939;DHT22;62291;47.554;8.504;2023-02-15T06:21:58;-0.60;99.90
73939;DHT22;62291;47.554;8.504;2023-02-15T06:24:24;-0.70;99.90
73939;DHT22;62291;47.554;8.504;2023-02-15T06:26:50;-0.60;99.90
73939;DHT22;62291;47.554;8.504;2023-02-15T06:29:15;-0.60;99.90
73939;DHT22;62291;47.554;8.504;2023-02-15T06:31:41;-0.70;99.90
73939;DHT22;62291;47.554;8.504;2023-02-15T06:34:07;-0.70;99.90
73939;DHT22;62291;47.554;8.504;2023-02-15T06:36:33;-0.60;99.90
73939;DHT22;62291;47.554;8.504;2023-02-15T06:38:58;-0.50;99.90
73939;DHT22;62291;47.554;8.504;2023-02-15T06:41:24;-0.60;99.90
73939;DHT22;62291;47.554;8.504;2023-02-15T06:43:50;-0.60;99.90
73939;DHT22;62291;47.554;8.504;2023-02-15T06:46:16;-0.60;99.90
73939;DHT22;62291;47.554;8.504;2023-02-15T06:48:45;-0.70;99.90
73939;DHT22;62291;47.554;8.504;2023-02-15T06:51:10;-0.80;99.90
73939;DHT22;62291;47.554;8.504;2023-02-15T06:53:36;-0.80;99.90
73939;DHT22;62291;47.554;8.504;2023-02-15T06:56:06;-0.80;99.90
73939;DHT22;62291;47.554;8.504;2023-02-15T06:58:34;-0.80;99.90
73939;DHT22;62291;47.554;8.504;2023-02-15T07:01:00;-0.80;99.90
73939;DHT22;62291;47.554;8.504;2023-02-15T07:03:26;-0.70;99.90
73939;DHT22;62291;47.554;8.504;2023-02-15T07:05:58;-0.60;99.90
73939;DHT22;62291;47.554;8.504;2023-02-15T07:08:26;-0.70;99.90
73939;DHT22;62291;47.554;8.504;2023-02-15T07:10:53;-0.80;99.90
73939;DHT22;62291;47.554;8.504;2023-02-15T07:13:19;-0.80;99.90
73939;DHT22;62291;47.554;8.504;2023-02-15T07:15:46;-0.80;99.90
73939;DHT22;62291;47.554;8.504;2023-02-15T07:18:12;-0.90;99.90
73939;DHT22;62291;47.554;8.504;2023-02-15T07:20:38;-0.80;99.90
73939;DHT22;62291;47.554;8.504;2023-02-15T07:23:04;-0.90;99.90
73939;DHT22;62291;47.554;8.504;2023-02-15T07:25:30;-0.90;99.90
73939;DHT22;62291;47.554;8.504;2023-02-15T07:28:01;-0.90;99.90
73939;DHT22;62291;47.554;8.504;2023-02-15T07:30:28;-0.90;99.90
73939;DHT22;62291;47.554;8.504;2023-02-15T07:32:57;-0.80;99.90
73939;DHT22;62291;47.554;8.504;2023-02-15T07:35:52;-0.80;99.90
73939;DHT22;62291;47.554;8.504;2023-02-15T07:38:20;-0.80;99.90
73939;DHT22;62291;47.554;8.504;2023-02-15T07:40:46;-0.90;99.90
73939;DHT22;62291;47.554;8.504;2023-02-15T07:43:12;-0.80;99.90
73939;DHT22;62291;47.554;8.504;2023-02-15T07:45:39;-0.70;99.90
73939;DHT22;62291;47.554;8.504;2023-02-15T07:48:06;-0.70;99.90
73939;DHT22;62291;47.554;8.504;2023-02-15T07:50:32;-0.70;99.90
73939;DHT22;62291;47.554;8.504;2023-02-15T07:53:00;-0.70;99.90
73939;DHT22;62291;47.554;8.504;2023-02-15T07:55:26;-0.70;99.90
73939;DHT22;62291;47.554;8.504;2023-02-15T07:57:52;-0.70;99.90
73939;DHT22;62291;47.554;8.504;2023-02-15T08:00:20;-0.80;99.90
73939;DHT22;62291;47.554;8.504;2023-02-15T08:02:51;-0.60;99.90
73939;DHT22;62291;47.554;8.504;2023-02-15T08:05:37;-0.40;99.90
73939;DHT22;62291;47.554;8.504;2023-02-15T08:08:04;-0.40;99.90
73939;DHT22;62291;47.554;8.504;2023-02-15T08:10:29;-0.20;99.90
73939;DHT22;62291;47.554;8.504;2023-02-15T08:13:13;-0.30;99.90
73939;DHT22;62291;47.554;8.504;2023-02-15T08:15:39;-0.40;99.90
73939;DHT22;62291;47.554;8.504;2023-02-15T08:18:05;-0.40;99.90
73939;DHT22;62291;47.554;8.504;2023-02-15T08:20:30;-0.50;99.90
73939;DHT22;62291;47.554;8.504;2023-02-15T08:22:56;-0.50;99.90
73939;DHT22;62291;47.554;8.504;2023-02-15T08:25:22;-0.50;99.90
73939;DHT22;62291;47.554;8.504;2023-02-15T08:27:49;-0.50;99.90
73939;DHT22;62291;47.554;8.504;2023-02-15T08:30:15;-0.40;99.90
73939;DHT22;62291;47.554;8.504;2023-02-15T08:32:40;-0.30;99.90
73939;DHT22;62291;47.554;8.504;2023-02-15T08:35:06;-0.20;99.90
73939;DHT22;62291;47.554;8.504;2023-02-15T08:37:32;-0.20;99.90
73939;DHT22;62291;47.554;8.504;2023-02-15T08:39:57;-0.10;99.90
73939;DHT22;62291;47.554;8.504;2023-02-15T08:42:23;0.10;99.90
73939;DHT22;62291;47.554;8.504;2023-02-15T08:44:49;0.30;99.90
73939;DHT22;62291;47.554;8.504;2023-02-15T08:47:16;0.40;99.90
73939;DHT22;62291;47.554;8.504;2023-02-15T08:49:41;0.60;99.90
73939;DHT22;62291;47.554;8.504;2023-02-15T08:52:07;0.70;99.90
73939;DHT22;62291;47.554;8.504;2023-02-15T08:54:33;0.80;99.90
73939;DHT22;62291;47.554;8.504;2023-02-15T08:56:59;0.90;99.90
73939;DHT22;62291;47.554;8.504;2023-02-15T08:59:25;0.90;99.90
73939;DHT22;62291;47.554;8.504;2023-02-15T09:01:53;0.70;99.90
73939;DHT22;62291;47.554;8.504;2023-02-15T09:04:20;0.40;99.90
73939;DHT22;62291;47.554;8.504;2023-02-15T09:06:48;0.10;99.90
73939;DHT22;62291;47.554;8.504;2023-02-15T09:09:14;0.40;99.90
73939;DHT22;62291;47.554;8.504;2023-02-15T09:11:45;0.50;99.90
73939;DHT22;62291;47.554;8.504;2023-02-15T09:14:16;0.60;99.90
73939;DHT22;62291;47.554;8.504;2023-02-15T09:16:44;0.80;99.90
73939;DHT22;62291;47.554;8.504;2023-02-15T09:19:11;0.90;99.90
73939;DHT22;62291;47.554;8.504;2023-02-15T09:21:38;1.10;99.90
73939;DHT22;62291;47.554;8.504;2023-02-15T09:24:06;1.20;99.90
73939;DHT22;62291;47.554;8.504;2023-02-15T09:26:34;1.30;99.90
73939;DHT22;62291;47.554;8.504;2023-02-15T09:29:01;1.50;99.90
73939;DHT22;62291;47.554;8.504;2023-02-15T09:31:31;1.60;99.90
73939;DHT22;62291;47.554;8.504;2023-02-15T09:33:58;1.40;99.90
73939;DHT22;62291;47.554;8.504;2023-02-15T09:36:34;1.20;99.90
73939;DHT22;62291;47.554;8.504;2023-02-15T09:44:47;0.50;99.90
73939;DHT22;62291;47.554;8.504;2023-02-15T10:02:38;0.80;99.90
73939;DHT22;62291;47.554;8.504;2023-02-15T10:05:31;1.10;99.90
73939;DHT22;62291;47.554;8.504;2023-02-15T10:08:08;1.20;99.90
73939;DHT22;62291;47.554;8.504;2023-02-15T10:10:47;1.00;99.90
73939;DHT22;62291;47.554;8.504;2023-02-15T10:13:39;0.70;99.90
73939;DHT22;62291;47.554;8.504;2023-02-15T10:16:40;1.00;99.90
73939;DHT22;62291;47.554;8.504;2023-02-15T10:27:18;1.00;99.90
73939;DHT22;62291;47.554;8.504;2023-02-15T10:32:27;1.50;99.90
73939;DHT22;62291;47.554;8.504;2023-02-15T10:38:06;1.80;99.90
73939;DHT22;62291;47.554;8.504;2023-02-15T10:57:04;1.40;99.90
73939;DHT22;62291;47.554;8.504;2023-02-15T10:59:39;1.50;99.90
73939;DHT22;62291;47.554;8.504;2023-02-15T11:05:35;1.80;99.90
73939;DHT22;62291;47.554;8.504;2023-02-15T11:08:06;2.00;99.90
73939;DHT22;62291;47.554;8.504;2023-02-15T11:11:00;2.00;99.90
73939;DHT22;62291;47.554;8.504;2023-02-15T11:13:29;1.90;99.90
73939;DHT22;62291;47.554;8.504;2023-02-15T11:23:37;1.70;99.90
73939;DHT22;62291;47.554;8.504;2023-02-15T11:26:11;1.90;99.90
73939;DHT22;62291;47.554;8.504;2023-02-15T11:31:26;2.20;99.90
73939;DHT22;62291;47.554;8.504;2023-02-15T11:33:59;2.30;99.90
73939;DHT22;62291;47.554;8.504;2023-02-15T11:36:37;2.60;99.90
73939;DHT22;62291;47.554;8.504;2023-02-15T11:39:15;2.80;99.90
73939;DHT22;62291;47.554;8.504;2023-02-15T11:41:46;2.60;99.90
73939;DHT22;62291;47.554;8.504;2023-02-15T11:44:15;2.60;99.90
73939;DHT22;62291;47.554;8.504;2023-02-15T11:46:42;2.40;99.90
73939;DHT22;62291;47.554;8.504;2023-02-15T11:49:40;2.80;99.90
73939;DHT22;62291;47.554;8.504;2023-02-15T11:52:10;3.20;99.90
73939;DHT22;62291;47.554;8.504;2023-02-15T11:54:41;3.30;99.90
73939;DHT22;62291;47.554;8.504;2023-02-15T12:02:38;3.00;99.90
73939;DHT22;62291;47.554;8.504;2023-02-15T12:05:13;3.10;99.90
73939;DHT22;62291;47.554;8.504;2023-02-15T12:07:48;3.10;99.90
73939;DHT22;62291;47.554;8.504;2023-02-15T12:10:27;3.10;99.90
73939;DHT22;62291;47.554;8.504;2023-02-15T12:13:14;2.90;99.90
73939;DHT22;62291;47.554;8.504;2023-02-15T12:15:57;2.80;99.90
73939;DHT22;62291;47.554;8.504;2023-02-15T12:18:37;2.90;99.90
73939;DHT22;62291;47.554;8.504;2023-02-15T12:21:12;3.30;99.90
73939;DHT22;62291;47.554;8.504;2023-02-15T12:23:51;3.50;99.90
73939;DHT22;62291;47.554;8.504;2023-02-15T12:26:34;3.70;99.90
73939;DHT22;62291;47.554;8.504;2023-02-15T12:29:17;3.50;99.90
73939;DHT22;62291;47.554;8.504;2023-02-15T12:31:50;3.20;99.90
73939;DHT22;62291;47.554;8.504;2023-02-15T12:34:37;3.20;99.90
73939;DHT22;62291;47.554;8.504;2023-02-15T12:37:16;3.10;99.90
73939;DHT22;62291;47.554;8.504;2023-02-15T12:40:00;3.20;99.90
73939;DHT22;62291;47.554;8.504;2023-02-15T12:42:28;3.60;99.90
73939;DHT22;62291;47.554;8.504;2023-02-15T12:45:29;3.60;99.90
73939;DHT22;62291;47.554;8.504;2023-02-15T12:48:16;3.40;99.90
73939;DHT22;62291;47.554;8.504;2023-02-15T12:50:47;3.40;99.90
73939;DHT22;62291;47.554;8.504;2023-02-15T12:53:31;3.30;99.90
73939;DHT22;62291;47.554;8.504;2023-02-15T12:56:05;3.40;99.90
73939;DHT22;62291;47.554;8.504;2023-02-15T12:58:40;3.50;99.90
73939;DHT22;62291;47.554;8.504;2023-02-15T13:01:14;3.60;99.90
73939;DHT22;62291;47.554;8.504;2023-02-15T13:04:00;3.50;99.90
73939;DHT22;62291;47.554;8.504;2023-02-15T13:06:34;3.50;99.90
73939;DHT22;62291;47.554;8.504;2023-02-15T13:09:18;3.40;99.90
73939;DHT22;62291;47.554;8.504;2023-02-15T13:11:45;3.50;99.90
73939;DHT22;62291;47.554;8.504;2023-02-15T13:14:20;3.70;99.90
73939;DHT22;62291;47.554;8.504;2023-02-15T13:16:49;3.90;99.90
73939;DHT22;62291;47.554;8.504;2023-02-15T13:19:34;4.00;99.90
73939;DHT22;62291;47.554;8.504;2023-02-15T13:22:06;4.20;99.90
73939;DHT22;62291;47.554;8.504;2023-02-15T13:24:40;4.30;99.90
73939;DHT22;62291;47.554;8.504;2023-02-15T13:27:12;4.20;99.90
73939;DHT22;62291;47.554;8.504;2023-02-15T13:29:40;4.20;99.90
73939;DHT22;62291;47.554;8.504;2023-02-15T13:32:19;4.10;99.90
73939;DHT22;62291;47.554;8.504;2023-02-15T13:34:48;4.00;99.90
73939;DHT22;62291;47.554;8.504;2023-02-15T13:37:33;4.10;99.90
73939;DHT22;62291;47.554;8.504;2023-02-15T13:42:49;4.20;99.90
73939;DHT22;62291;47.554;8.504;2023-02-15T13:54:35;4.10;99.90
73939;DHT22;62291;47.554;8.504;2023-02-15T13:57:39;4.30;99.90
73939;DHT22;62291;47.554;8.504;2023-02-15T14:06:20;4.30;99.90
73939;DHT22;62291;47.554;8.504;2023-02-15T14:12:13;4.20;99.90
73939;DHT22;62291;47.554;8.504;2023-02-15T14:15:23;4.30;99.90
73939;DHT22;62291;47.554;8.504;2023-02-15T14:17:50;4.30;99.90
73939;DHT22;62291;47.554;8.504;2023-02-15T14:31:40;4.40;99.90
73939;DHT22;62291;47.554;8.504;2023-02-15T14:34:29;4.30;99.90
73939;DHT22;62291;47.554;8.504;2023-02-15T14:36:56;4.30;99.90
73939;DHT22;62291;47.554;8.504;2023-02-15T14:45:35;4.30;99.90
73939;DHT22;62291;47.554;8.504;2023-02-15T14:48:17;4.30;99.90
73939;DHT22;62291;47.554;8.504;2023-02-15T14:50:47;4.40;99.90
73939;DHT22;62291;47.554;8.504;2023-02-15T14:53:37;4.40;99.90
73939;DHT22;62291;47.554;8.504;2023-02-15T15:01:15;4.40;99.90
73939;DHT22;62291;47.554;8.504;2023-02-15T15:03:50;4.30;99.90
73939;DHT22;62291;47.554;8.504;2023-02-15T15:06:32;4.40;99.90
73939;DHT22;62291;47.554;8.504;2023-02-15T15:09:10;4.40;99.90
73939;DHT22;62291;47.554;8.504;2023-02-15T15:11:41;4.50;99.90
73939;DHT22;62291;47.554;8.504;2023-02-15T15:14:08;4.60;99.90
73939;DHT22;62291;47.554;8.504;2023-02-15T15:19:07;4.60;99.90
73939;DHT22;62291;47.554;8.504;2023-02-15T15:43:59;4.20;99.90
73939;DHT22;62291;47.554;8.504;2023-02-15T15:46:33;4.20;99.90
73939;DHT22;62291;47.554;8.504;2023-02-15T15:49:10;4.30;99.90
73939;DHT22;62291;47.554;8.504;2023-02-15T15:51:40;4.20;99.90
73939;DHT22;62291;47.554;8.504;2023-02-15T15:54:14;4.20;99.90
73939;DHT22;62291;47.554;8.504;2023-02-15T15:56:44;4.20;99.90
73939;DHT22;62291;47.554;8.504;2023-02-15T15:59:19;4.10;99.90
73939;DHT22;62291;47.554;8.504;2023-02-15T16:01:46;4.00;99.90
73939;DHT22;62291;47.554;8.504;2023-02-15T16:04:21;3.90;99.90
73939;DHT22;62291;47.554;8.504;2023-02-15T16:06:48;3.90;99.90
73939;DHT22;62291;47.554;8.504;2023-02-15T16:09:18;3.80;99.90
73939;DHT22;62291;47.554;8.504;2023-02-15T16:12:01;3.80;99.90
73939;DHT22;62291;47.554;8.504;2023-02-15T16:14:38;3.70;99.90
73939;DHT22;62291;47.554;8.504;2023-02-15T16:17:12;3.60;99.90
73939;DHT22;62291;47.554;8.504;2023-02-15T16:19:41;3.50;99.90
73939;DHT22;62291;47.554;8.504;2023-02-15T16:22:21;3.40;99.90
73939;DHT22;62291;47.554;8.504;2023-02-15T16:27:44;3.20;99.90
73939;DHT22;62291;47.554;8.504;2023-02-15T16:32:42;2.90;99.90
73939;DHT22;62291;47.554;8.504;2023-02-15T16:35:16;2.80;99.90
73939;DHT22;62291;47.554;8.504;2023-02-15T16:37:43;2.60;99.90
73939;DHT22;62291;47.554;8.504;2023-02-15T16:40:37;2.60;99.90
73939;DHT22;62291;47.554;8.504;2023-02-15T16:43:06;2.40;99.90
73939;DHT22;62291;47.554;8.504;2023-02-15T16:45:35;2.40;99.90
73939;DHT22;62291;47.554;8.504;2023-02-15T16:48:10;2.30;99.90
73939;DHT22;62291;47.554;8.504;2023-02-15T16:50:39;2.20;99.90
73939;DHT22;62291;47.554;8.504;2023-02-15T16:53:06;2.20;99.90
73939;DHT22;62291;47.554;8.504;2023-02-15T16:55:40;2.10;99.90
73939;DHT22;62291;47.554;8.504;2023-02-15T16:58:13;2.00;99.90
73939;DHT22;62291;47.554;8.504;2023-02-15T17:00:40;1.80;99.90
73939;DHT22;62291;47.554;8.504;2023-02-15T17:05:46;1.60;99.90
73939;DHT22;62291;47.554;8.504;2023-02-15T17:08:33;1.40;99.90
73939;DHT22;62291;47.554;8.504;2023-02-15T17:13:28;1.20;99.90
73939;DHT22;62291;47.554;8.504;2023-02-15T17:18:31;1.10;99.90
73939;DHT22;62291;47.554;8.504;2023-02-15T17:21:10;1.00;99.90
73939;DHT22;62291;47.554;8.504;2023-02-15T17:23:40;1.10;99.90
73939;DHT22;62291;47.554;8.504;2023-02-15T17:26:22;1.10;99.90
73939;DHT22;62291;47.554;8.504;2023-02-15T17:28:50;1.10;99.90
73939;DHT22;62291;47.554;8.504;2023-02-15T17:31:18;1.10;99.90
73939;DHT22;62291;47.554;8.504;2023-02-15T17:33:44;1.10;99.90
73939;DHT22;62291;47.554;8.504;2023-02-15T17:36:19;1.20;99.90
73939;DHT22;62291;47.554;8.504;2023-02-15T17:41:28;1.10;99.90
73939;DHT22;62291;47.554;8.504;2023-02-15T17:43:54;1.00;99.90
73939;DHT22;62291;47.554;8.504;2023-02-15T17:46:20;1.00;99.90
73939;DHT22;62291;47.554;8.504;2023-02-15T17:48:50;0.90;99.90
73939;DHT22;62291;47.554;8.504;2023-02-15T17:51:18;0.90;99.90
73939;DHT22;62291;47.554;8.504;2023-02-15T17:53:44;0.80;99.90
73939;DHT22;62291;47.554;8.504;2023-02-15T17:56:31;0.70;99.90
73939;DHT22;62291;47.554;8.504;2023-02-15T17:58:57;0.60;99.90
73939;DHT22;62291;47.554;8.504;2023-02-15T18:01:23;0.60;99.90
73939;DHT22;62291;47.554;8.504;2023-02-15T18:04:14;0.50;99.90
73939;DHT22;62291;47.554;8.504;2023-02-15T18:07:00;0.20;99.90
73939;DHT22;62291;47.554;8.504;2023-02-15T18:09:44;0.10;99.90
73939;DHT22;62291;47.554;8.504;2023-02-15T18:12:32;0.00;99.90
73939;DHT22;62291;47.554;8.504;2023-02-15T18:14:59;-0.20;99.90
73939;DHT22;62291;47.554;8.504;2023-02-15T18:17:33;-0.20;99.90
73939;DHT22;62291;47.554;8.504;2023-02-15T18:20:01;-0.20;99.90
73939;DHT22;62291;47.554;8.504;2023-02-15T18:22:32;-0.20;99.90
73939;DHT22;62291;47.554;8.504;2023-02-15T18:24:57;-0.10;99.90
73939;DHT22;62291;47.554;8.504;2023-02-15T18:27:23;-0.10;99.90
73939;DHT22;62291;47.554;8.504;2023-02-15T18:29:49;-0.10;99.90
73939;DHT22;62291;47.554;8.504;2023-02-15T18:32:27;-0.10;99.90
73939;DHT22;62291;47.554;8.504;2023-02-15T18:34:57;-0.10;99.90
73939;DHT22;62291;47.554;8.504;2023-02-15T18:37:25;-0.20;99.90
73939;DHT22;62291;47.554;8.504;2023-02-15T18:39:52;-0.20;99.90
73939;DHT22;62291;47.554;8.504;2023-02-15T18:44:48;-0.20;99.90
73939;DHT22;62291;47.554;8.504;2023-02-15T18:47:13;-0.30;99.90
73939;DHT22;62291;47.554;8.504;2023-02-15T18:49:39;-0.30;99.90
73939;DHT22;62291;47.554;8.504;2023-02-15T18:52:05;-0.30;99.90
73939;DHT22;62291;47.554;8.504;2023-02-15T18:54:30;-0.30;99.90
73939;DHT22;62291;47.554;8.504;2023-02-15T18:56:57;-0.40;99.90
73939;DHT22;62291;47.554;8.504;2023-02-15T18:59:26;-0.50;99.90
73939;DHT22;62291;47.554;8.504;2023-02-15T19:01:52;-0.50;99.90
73939;DHT22;62291;47.554;8.504;2023-02-15T19:04:18;-0.50;99.90
73939;DHT22;62291;47.554;8.504;2023-02-15T19:06:46;-0.60;99.90
73939;DHT22;62291;47.554;8.504;2023-02-15T19:09:19;-0.70;99.90
73939;DHT22;62291;47.554;8.504;2023-02-15T19:11:51;-0.70;99.90
73939;DHT22;62291;47.554;8.504;2023-02-15T19:14:30;-0.70;99.90
73939;DHT22;62291;47.554;8.504;2023-02-15T19:16:58;-0.70;99.90
73939;DHT22;62291;47.554;8.504;2023-02-15T19:19:24;-0.70;99.90